Time;durP1;ratioP1;P1;durP2;ratioP2;P2;SDS_P1;SDS_P2;PMS_P1;PMS_P2;Temp;Humidity;BMP_temperature;BMP_pressure;BME280_temperature;BME280_humidity;BME280_pressure;Samples;Min_cycle;Max_cycle;Signal;HPM_P1;HPM_P2
2023/02/28 00:00:55;;;;;;;;;;;;;;;;;;5091597;28;2158;-43
2023/02/28 00:03:22;;;;;;;;;;;;;;;;;;5071657;28;1859;-43
2023/02/28 00:05:49;;;;;;;;;;;;;;;;;;5084356;28;2204;-41
2023/02/28 00:08:16;;;;;;;;;;;;;;;;;;5090553;28;1574;-42
2023/02/28 00:10:44;;;;;;;;;;;;;;;;;;5091710;28;1811;-43
2023/02/28 00:13:11;;;;;;;;;;;;;;;;;;5091587;28;1906;-41
2023/02/28 00:15:41;;;;;;;;;;;;;;;;;;5087054;28;1657;-43
2023/02/28 00:18:08;;;;;;;;;;;;;;;;;;5071482;28;1999;-41
2023/02/28 00:20:35;;;;;;;;;;;;;;;;;;5071289;28;1980;-42
2023/02/28 00:23:02;;;;;;;;;;;;;;;;;;5071517;28;1893;-43
2023/02/28 00:25:29;;;;;;;;;;;;;;;;;;5071410;28;1714;-42
2023/02/28 00:27:57;;;;;;;;;;;;;;;;;;5071205;28;2368;-43
2023/02/28 00:30:24;;;;;;;;;;;;;;;;;;5069904;28;2223;-42
2023/02/28 00:32:52;;;;;;;;;;;;;;;;;;5086528;28;1971;-42
2023/02/28 00:35:19;;;;;;;;;;;;;;;;;;5090437;28;2105;-43
2023/02/28 00:37:47;;;;;;;;;;;;;;;;;;5091561;28;1468;-42
2023/02/28 00:40:14;;;;;;;;;;;;;;;;;;5091350;28;2106;-42
2023/02/28 00:42:42;;;;;;;;;;;;;;;;;;5091402;28;1564;-42
2023/02/28 00:45:09;;;;;;;;;;;;;;;;;;5092654;28;1968;-43
2023/02/28 00:47:37;;;;;;;;;;;;;;;;;;5094367;28;2168;-43
2023/02/28 00:50:05;;;;;;;;;;;;;;;;;;5095880;28;1913;-44
2023/02/28 00:52:32;;;;;;;;;;;;;;;;;;5095513;28;1902;-42
2023/02/28 00:54:59;;;;;;;;;;;;;;;;;;5093906;28;2239;-41
2023/02/28 00:57:26;;;;;;;;;;;;;;;;;;5092718;28;2055;-43
2023/02/28 00:59:56;;;;;;;;;;;;;;;;;;5090932;28;1671;-41
2023/02/28 01:02:23;;;;;;;;;;;;;;;;;;5075301;28;1681;-42
2023/02/28 01:04:52;;;;;;;;;;;;;;;;;;5079566;28;2066;-45
2023/02/28 01:07:19;;;;;;;;;;;;;;;;;;5095532;28;1928;-42
2023/02/28 01:09:46;;;;;;;;;;;;;;;;;;5095000;28;2121;-44
2023/02/28 01:12:14;;;;;;;;;;;;;;;;;;5082952;28;2041;-43
2023/02/28 01:14:41;;;;;;;;;;;;;;;;;;5073475;28;2008;-43
2023/02/28 01:17:08;;;;;;;;;;;;;;;;;;5074824;28;2143;-42
2023/02/28 01:19:35;;;;;;;;;;;;;;;;;;5073369;28;2020;-43
2023/02/28 01:22:03;;;;;;;;;;;;;;;;;;5073380;28;1812;-41
2023/02/28 01:24:31;;;;;;;;;;;;;;;;;;5074681;28;1802;-43
2023/02/28 01:27:00;;;;;;;;;;;;;;;;;;5074502;28;2020;-43
2023/02/28 01:29:27;;;;;;;;;;;;;;;;;;5073316;28;1745;-43
2023/02/28 01:31:54;;;;;;;;;;;;;;;;;;5083271;28;2112;-43
2023/02/28 01:34:22;;;;;;;;;;;;;;;;;;5094874;28;1883;-43
2023/02/28 01:36:50;;;;;;;;;;;;;;;;;;5094512;28;1840;-42
2023/02/28 01:39:18;;;;;;;;;;;;;;;;;;5094545;28;1814;-42
2023/02/28 01:41:45;;;;;;;;;;;;;;;;;;5094835;28;2098;-44
2023/02/28 01:44:31;;;;;;;;;;;;;;;;;;5093250;28;1838;-42
2023/02/28 01:46:58;;;;;;;;;;;;;;;;;;5093178;28;1844;-41
2023/02/28 01:49:25;;;;;;;;;;;;;;;;;;5094615;28;2232;-42
2023/02/28 01:51:54;;;;;;;;;;;;;;;;;;5094639;28;2117;-42
2023/02/28 01:54:26;;;;;;;;;;;;;;;;;;5086206;28;2113;-41
2023/02/28 01:57:14;;;;;;;;;;;;;;;;;;5073268;28;1935;-43
2023/02/28 01:59:58;;;;;;;;;;;;;;;;;;5089387;28;1754;-42
2023/02/28 02:02:27;;;;;;;;;;;;;;;;;;5072910;28;2181;-43
2023/02/28 02:05:10;;;;;;;;;;;;;;;;;;5079130;28;2025;-43
2023/02/28 02:07:40;;;;;;;;;;;;;;;;;;5092675;28;1643;-41
2023/02/28 02:10:14;;;;;;;;;;;;;;;;;;5073740;28;1847;-41
2023/02/28 02:12:52;;;;;;;;;;;;;;;;;;5072386;28;2040;-42
2023/02/28 02:15:28;;;;;;;;;;;;;;;;;;5073752;28;1758;-42
2023/02/28 02:17:57;;;;;;;;;;;;;;;;;;5073342;28;1866;-42
2023/02/28 02:20:35;;;;;;;;;;;;;;;;;;5073637;28;1893;-42
2023/02/28 02:23:15;;;;;;;;;;;;;;;;;;5073605;28;2123;-42
2023/02/28 02:25:51;;;;;;;;;;;;;;;;;;5072136;28;1870;-42
2023/02/28 02:28:36;;;;;;;;;;;;;;;;;;5072176;28;2218;-43
2023/02/28 02:31:22;;;;;;;;;;;;;;;;;;5074820;28;2107;-43
2023/02/28 02:33:58;;;;;;;;;;;;;;;;;;5093477;28;1987;-41
2023/02/28 02:36:47;;;;;;;;;;;;;;;;;;5093631;28;1953;-41
2023/02/28 02:39:22;;;;;;;;;;;;;;;;;;5092037;28;1944;-42
2023/02/28 02:41:53;;;;;;;;;;;;;;;;;;5093445;28;1984;-41
2023/02/28 02:44:23;;;;;;;;;;;;;;;;;;5093342;28;2100;-41
2023/02/28 02:46:53;;;;;;;;;;;;;;;;;;5093335;28;1636;-41
2023/02/28 02:49:41;;;;;;;;;;;;;;;;;;5091901;28;2306;-43
2023/02/28 02:52:10;;;;;;;;;;;;;;;;;;5072886;28;1717;-41
2023/02/28 02:54:40;;;;;;;;;;;;;;;;;;5071693;28;1983;-42
2023/02/28 02:57:09;;;;;;;;;;;;;;;;;;5073018;28;1905;-41
2023/02/28 02:59:38;;;;;;;;;;;;;;;;;;5072744;28;2071;-42
2023/02/28 03:02:07;;;;;;;;;;;;;;;;;;5072746;28;1466;-41
2023/02/28 03:04:38;;;;;;;;;;;;;;;;;;5074627;28;1752;-42
2023/02/28 03:07:05;;;;;;;;;;;;;;;;;;5093017;28;1842;-41
2023/02/28 03:09:34;;;;;;;;;;;;;;;;;;5091444;28;1660;-42
2023/02/28 03:12:03;;;;;;;;;;;;;;;;;;5092941;28;2125;-42
2023/02/28 03:14:38;;;;;;;;;;;;;;;;;;5092837;28;1964;-43
2023/02/28 03:17:10;;;;;;;;;;;;;;;;;;5092711;28;1711;-42
2023/02/28 03:19:52;;;;;;;;;;;;;;;;;;5091201;28;1758;-42
2023/02/28 03:22:32;;;;;;;;;;;;;;;;;;5092625;28;2419;-41
2023/02/28 03:25:06;;;;;;;;;;;;;;;;;;5091393;28;2200;-42
2023/02/28 03:27:41;;;;;;;;;;;;;;;;;;5092550;28;2160;-42
2023/02/28 03:30:14;;;;;;;;;;;;;;;;;;5091201;28;1665;-42
2023/02/28 03:32:51;;;;;;;;;;;;;;;;;;5092390;28;1905;-42
2023/02/28 03:35:23;;;;;;;;;;;;;;;;;;5090879;28;1705;-42
2023/02/28 03:37:53;;;;;;;;;;;;;;;;;;5072354;28;1619;-41
2023/02/28 03:40:21;;;;;;;;;;;;;;;;;;5071957;28;1965;-44
2023/02/28 03:42:51;;;;;;;;;;;;;;;;;;5072132;28;2150;-42
2023/02/28 03:45:21;;;;;;;;;;;;;;;;;;5071915;28;1675;-43
2023/02/28 03:47:48;;;;;;;;;;;;;;;;;;5071661;28;2058;-42
2023/02/28 03:50:21;;;;;;;;;;;;;;;;;;5071816;28;1933;-41
2023/02/28 03:53:21;;;;;;;;;;;;;;;;;;5070414;28;2545;-44
2023/02/28 03:55:50;;;;;;;;;;;;;;;;;;5048491;28;1988;-42
2023/02/28 03:58:25;;;;;;;;;;;;;;;;;;5071776;28;1430;-42
2023/02/28 04:00:57;;;;;;;;;;;;;;;;;;5070349;28;2088;-42
2023/02/28 04:03:25;;;;;;;;;;;;;;;;;;5071729;28;1872;-43
2023/02/28 04:05:53;;;;;;;;;;;;;;;;;;5084486;28;2245;-42
2023/02/28 04:08:20;;;;;;;;;;;;;;;;;;5091824;28;1939;-43
2023/02/28 04:10:51;;;;;;;;;;;;;;;;;;5091922;28;1495;-42
2023/02/28 04:13:18;;;;;;;;;;;;;;;;;;5091621;28;2228;-42
2023/02/28 04:15:45;;;;;;;;;;;;;;;;;;5091723;28;2002;-43
2023/02/28 04:18:13;;;;;;;;;;;;;;;;;;5091679;28;2106;-41
2023/02/28 04:20:40;;;;;;;;;;;;;;;;;;5091330;28;2009;-41
2023/02/28 04:23:07;;;;;;;;;;;;;;;;;;5091699;28;2009;-42
2023/02/28 04:25:34;;;;;;;;;;;;;;;;;;5087286;28;2030;-43
2023/02/28 04:28:02;;;;;;;;;;;;;;;;;;5071696;28;2087;-41
2023/02/28 04:30:32;;;;;;;;;;;;;;;;;;5071264;28;2131;-42
2023/02/28 04:33:00;;;;;;;;;;;;;;;;;;5088794;28;2138;-42
2023/02/28 04:35:27;;;;;;;;;;;;;;;;;;5091420;28;1425;-40
2023/02/28 04:37:54;;;;;;;;;;;;;;;;;;5091149;28;1778;-42
2023/02/28 04:40:21;;;;;;;;;;;;;;;;;;5091607;28;2090;-42
2023/02/28 04:42:50;;;;;;;;;;;;;;;;;;5085411;28;2307;-45
2023/02/28 04:45:17;;;;;;;;;;;;;;;;;;5074477;28;2090;-42
2023/02/28 04:47:46;;;;;;;;;;;;;;;;;;5088925;28;2034;-45
2023/02/28 04:50:18;;;;;;;;;;;;;;;;;;5069768;28;2510;-41
2023/02/28 04:52:45;;;;;;;;;;;;;;;;;;5070922;28;2060;-41
2023/02/28 04:55:12;;;;;;;;;;;;;;;;;;5070997;28;1955;-41
2023/02/28 04:57:42;;;;;;;;;;;;;;;;;;5070977;28;1811;-41
2023/02/28 05:00:11;;;;;;;;;;;;;;;;;;5070886;28;1986;-40
2023/02/28 05:02:39;;;;;;;;;;;;;;;;;;5071200;28;1875;-46
2023/02/28 05:05:06;;;;;;;;;;;;;;;;;;5077393;28;1855;-42
2023/02/28 05:07:35;;;;;;;;;;;;;;;;;;5091008;28;1974;-42
2023/02/28 05:10:03;;;;;;;;;;;;;;;;;;5091159;28;1966;-42
2023/02/28 05:12:32;;;;;;;;;;;;;;;;;;5091010;28;2124;-41
2023/02/28 05:15:00;;;;;;;;;;;;;;;;;;5091064;28;1970;-42
2023/02/28 05:17:28;;;;;;;;;;;;;;;;;;5090922;28;1583;-41
2023/02/28 05:19:55;;;;;;;;;;;;;;;;;;5090919;28;2299;-41
2023/02/28 05:22:35;;;;;;;;;;;;;;;;;;5091228;28;2047;-42
2023/02/28 05:25:04;;;;;;;;;;;;;;;;;;5090966;28;1687;-44
2023/02/28 05:27:31;;;;;;;;;;;;;;;;;;5090994;28;2054;-42
2023/02/28 05:29:59;;;;;;;;;;;;;;;;;;5090965;28;1699;-42
2023/02/28 05:32:26;;;;;;;;;;;;;;;;;;5079388;28;1871;-45
2023/02/28 05:34:55;;;;;;;;;;;;;;;;;;5074249;28;1975;-42
2023/02/28 05:37:22;;;;;;;;;;;;;;;;;;5074299;28;1739;-40
2023/02/28 05:39:50;;;;;;;;;;;;;;;;;;5074185;28;1558;-42
2023/02/28 05:42:18;;;;;;;;;;;;;;;;;;5074117;28;1996;-42
2023/02/28 05:44:45;;;;;;;;;;;;;;;;;;5074170;28;2171;-41
2023/02/28 05:47:15;;;;;;;;;;;;;;;;;;5074207;28;1859;-41
2023/02/28 05:49:42;;;;;;;;;;;;;;;;;;5074389;28;1924;-41
2023/02/28 05:52:10;;;;;;;;;;;;;;;;;;5074348;28;1970;-41
2023/02/28 05:54:37;;;;;;;;;;;;;;;;;;5073407;28;1918;-41
2023/02/28 05:57:04;;;;;;;;;;;;;;;;;;5073950;28;1928;-41
2023/02/28 05:59:41;;;;;;;;;;;;;;;;;;5074309;28;2080;-43
2023/02/28 06:02:13;;;;;;;;;;;;;;;;;;5074124;28;2085;-43
2023/02/28 06:04:41;;;;;;;;;;;;;;;;;;5076860;28;1896;-42
2023/02/28 06:07:08;;;;;;;;;;;;;;;;;;5094341;28;1984;-44
2023/02/28 06:09:36;;;;;;;;;;;;;;;;;;5093962;28;2007;-47
2023/02/28 06:12:05;;;;;;;;;;;;;;;;;;5093981;28;1806;-49
2023/02/28 06:14:33;;;;;;;;;;;;;;;;;;5093913;28;1974;-41
2023/02/28 06:17:01;;;;;;;;;;;;;;;;;;5093921;28;1890;-44
2023/02/28 06:19:29;;;;;;;;;;;;;;;;;;5093895;28;1752;-45
2023/02/28 06:21:57;;;;;;;;;;;;;;;;;;5093799;28;1280;-42
2023/02/28 06:24:24;;;;;;;;;;;;;;;;;;5093636;28;1935;-41
2023/02/28 06:26:51;;;;;;;;;;;;;;;;;;5093727;28;2078;-42
2023/02/28 06:29:19;;;;;;;;;;;;;;;;;;5093688;28;1373;-41
2023/02/28 06:31:47;;;;;;;;;;;;;;;;;;5086001;28;1914;-43
2023/02/28 06:34:14;;;;;;;;;;;;;;;;;;5073225;28;1910;-42
2023/02/28 06:36:42;;;;;;;;;;;;;;;;;;5073127;28;1651;-41
2023/02/28 06:39:09;;;;;;;;;;;;;;;;;;5073278;28;1763;-45
2023/02/28 06:41:38;;;;;;;;;;;;;;;;;;5077204;28;1462;-42
2023/02/28 06:44:20;;;;;;;;;;;;;;;;;;5092971;28;1822;-43
2023/02/28 06:46:47;;;;;;;;;;;;;;;;;;5093415;28;1811;-46
2023/02/28 06:49:14;;;;;;;;;;;;;;;;;;5093324;28;1777;-40
2023/02/28 06:51:44;;;;;;;;;;;;;;;;;;5083937;28;2120;-42
2023/02/28 06:54:12;;;;;;;;;;;;;;;;;;5072949;28;2134;-43
2023/02/28 06:56:39;;;;;;;;;;;;;;;;;;5072801;28;1713;-46
2023/02/28 06:59:06;;;;;;;;;;;;;;;;;;5072871;28;1326;-43
2023/02/28 07:01:33;;;;;;;;;;;;;;;;;;5072703;28;1613;-43
2023/02/28 07:04:01;;;;;;;;;;;;;;;;;;5072578;28;2042;-48
2023/02/28 07:06:28;;;;;;;;;;;;;;;;;;5090733;28;2027;-42
2023/02/28 07:08:55;;;;;;;;;;;;;;;;;;5081806;28;2236;-42
2023/02/28 07:11:25;;;;;;;;;;;;;;;;;;5072658;28;1952;-42
2023/02/28 07:13:53;;;;;;;;;;;;;;;;;;5072491;28;2270;-40
2023/02/28 07:16:21;;;;;;;;;;;;;;;;;;5072359;28;1977;-45
2023/02/28 07:18:48;;;;;;;;;;;;;;;;;;5072424;28;1767;-47
2023/02/28 07:21:16;;;;;;;;;;;;;;;;;;5072413;28;2023;-41
2023/02/28 07:23:43;;;;;;;;;;;;;;;;;;5072530;28;2236;-42
2023/02/28 07:26:14;;;;;;;;;;;;;;;;;;5072298;28;2168;-42
2023/02/28 07:28:42;;;;;;;;;;;;;;;;;;5072346;28;1921;-45
2023/02/28 07:31:09;;;;;;;;;;;;;;;;;;5072006;28;1590;-43
2023/02/28 07:33:37;;;;;;;;;;;;;;;;;;5071922;28;1904;-45
2023/02/28 07:36:05;;;;;;;;;;;;;;;;;;5071953;28;2143;-44
2023/02/28 07:38:37;;;;;;;;;;;;;;;;;;5071935;28;1979;-45
2023/02/28 07:41:04;;;;;;;;;;;;;;;;;;5071990;28;2034;-48
2023/02/28 07:43:32;;;;;;;;;;;;;;;;;;5071898;28;1719;-44
2023/02/28 07:46:07;;;;;;;;;;;;;;;;;;5072109;28;2196;-41
2023/02/28 07:48:34;;;;;;;;;;;;;;;;;;5071873;28;1678;-42
2023/02/28 07:51:02;;;;;;;;;;;;;;;;;;5071703;28;1815;-42
2023/02/28 07:53:29;;;;;;;;;;;;;;;;;;5071694;28;2113;-42
2023/02/28 07:55:57;;;;;;;;;;;;;;;;;;5071050;28;2072;-43
2023/02/28 07:58:25;;;;;;;;;;;;;;;;;;5071321;28;1891;-43
2023/02/28 08:00:53;;;;;;;;;;;;;;;;;;5071759;28;1868;-41
2023/02/28 08:03:21;;;;;;;;;;;;;;;;;;5071775;28;2117;-41
2023/02/28 08:05:48;;;;;;;;;;;;;;;;;;5071703;28;1774;-41
2023/02/28 08:08:16;;;;;;;;;;;;;;;;;;5071688;28;1763;-42
2023/02/28 08:10:43;;;;;;;;;;;;;;;;;;5071386;28;1763;-39
2023/02/28 08:13:10;;;;;;;;;;;;;;;;;;5071606;28;1421;-42
2023/02/28 08:15:38;;;;;;;;;;;;;;;;;;5071312;28;2049;-42
2023/02/28 08:18:05;;;;;;;;;;;;;;;;;;5071519;28;1970;-42
2023/02/28 08:20:32;;;;;;;;;;;;;;;;;;5071417;28;2073;-43
2023/02/28 08:22:59;;;;;;;;;;;;;;;;;;5071197;28;1956;-42
2023/02/28 08:25:26;;;;;;;;;;;;;;;;;;5071341;28;1696;-43
2023/02/28 08:27:54;;;;;;;;;;;;;;;;;;5071037;28;1888;-42
2023/02/28 08:30:21;;;;;;;;;;;;;;;;;;5071597;28;1756;-42
2023/02/28 08:32:48;;;;;;;;;;;;;;;;;;5087390;28;2129;-45
2023/02/28 08:35:16;;;;;;;;;;;;;;;;;;5091355;28;1897;-42
2023/02/28 08:37:43;;;;;;;;;;;;;;;;;;5083691;28;1307;-41
2023/02/28 08:40:13;;;;;;;;;;;;;;;;;;5069740;28;1903;-41
2023/02/28 08:42:40;;;;;;;;;;;;;;;;;;5071189;28;1589;-42
2023/02/28 08:45:07;;;;;;;;;;;;;;;;;;5070994;28;1680;-44
2023/02/28 08:47:34;;;;;;;;;;;;;;;;;;5086878;28;2045;-42
2023/02/28 08:50:01;;;;;;;;;;;;;;;;;;5071053;28;1738;-41
2023/02/28 08:52:28;;;;;;;;;;;;;;;;;;5071138;28;2286;-41
2023/02/28 08:54:55;;;;;;;;;;;;;;;;;;5070974;28;1992;-46
2023/02/28 08:57:23;;;;;;;;;;;;;;;;;;5071194;28;1896;-47
2023/02/28 08:59:51;;;;;;;;;;;;;;;;;;5071218;28;2130;-42
2023/02/28 09:02:18;;;;;;;;;;;;;;;;;;5071250;28;1325;-42
2023/02/28 09:04:45;;;;;;;;;;;;;;;;;;5074314;28;2096;-42
2023/02/28 09:07:13;;;;;;;;;;;;;;;;;;5094415;28;1731;-41
2023/02/28 09:09:53;;;;;;;;;;;;;;;;;;5095195;28;1958;-41
2023/02/28 09:12:24;;;;;;;;;;;;;;;;;;5095428;28;1667;-42
2023/02/28 09:14:52;;;;;;;;;;;;;;;;;;5095175;28;1973;-47
2023/02/28 09:17:19;;;;;;;;;;;;;;;;;;5095511;28;2011;-42
2023/02/28 09:19:49;;;;;;;;;;;;;;;;;;5094899;28;2029;-41
2023/02/28 09:22:16;;;;;;;;;;;;;;;;;;5095093;28;1765;-48
2023/02/28 09:24:44;;;;;;;;;;;;;;;;;;5083635;28;1417;-42
2023/02/28 09:27:11;;;;;;;;;;;;;;;;;;5074562;28;1852;-41
2023/02/28 09:29:39;;;;;;;;;;;;;;;;;;5074543;28;2291;-40
2023/02/28 09:32:06;;;;;;;;;;;;;;;;;;5084646;28;2034;-41
2023/02/28 09:34:33;;;;;;;;;;;;;;;;;;5094643;28;2383;-40
2023/02/28 09:37:00;;;;;;;;;;;;;;;;;;5094770;28;2118;-41
2023/02/28 09:39:28;;;;;;;;;;;;;;;;;;5094649;28;1851;-40
2023/02/28 09:41:55;;;;;;;;;;;;;;;;;;5094886;28;2184;-41
2023/02/28 09:44:23;;;;;;;;;;;;;;;;;;5094660;28;1975;-48
2023/02/28 09:46:53;;;;;;;;;;;;;;;;;;5094567;28;1719;-41
2023/02/28 09:49:23;;;;;;;;;;;;;;;;;;5094608;28;1828;-41
2023/02/28 09:51:51;;;;;;;;;;;;;;;;;;5094442;28;2091;-41
2023/02/28 09:54:20;;;;;;;;;;;;;;;;;;5094354;28;1903;-43
2023/02/28 09:56:53;;;;;;;;;;;;;;;;;;5094212;28;2037;-41
2023/02/28 09:59:26;;;;;;;;;;;;;;;;;;5094328;28;2439;-48
2023/02/28 10:01:59;;;;;;;;;;;;;;;;;;5094648;28;1808;-46
2023/02/28 10:04:42;;;;;;;;;;;;;;;;;;5093353;28;1721;-46
2023/02/28 10:07:32;;;;;;;;;;;;;;;;;;5073899;28;2043;-43
2023/02/28 10:10:02;;;;;;;;;;;;;;;;;;5068452;28;2185;-41
2023/02/28 10:12:30;;;;;;;;;;;;;;;;;;5073893;28;1943;-41
2023/02/28 10:14:59;;;;;;;;;;;;;;;;;;5073853;28;1910;-40
2023/02/28 10:17:30;;;;;;;;;;;;;;;;;;5073195;28;1980;-43
2023/02/28 10:20:00;;;;;;;;;;;;;;;;;;5073851;28;1517;-42
2023/02/28 10:22:34;;;;;;;;;;;;;;;;;;5073833;28;1960;-42
2023/02/28 10:25:02;;;;;;;;;;;;;;;;;;5073807;28;1556;-42
2023/02/28 10:27:32;;;;;;;;;;;;;;;;;;5073437;28;1907;-42
2023/02/28 10:30:00;;;;;;;;;;;;;;;;;;5074168;28;1987;-43
2023/02/28 10:32:29;;;;;;;;;;;;;;;;;;5086711;28;1866;-46
2023/02/28 10:35:07;;;;;;;;;;;;;;;;;;5093799;28;1923;-42
2023/02/28 10:37:38;;;;;;;;;;;;;;;;;;5093470;28;2142;-42
2023/02/28 10:40:06;;;;;;;;;;;;;;;;;;5093758;28;1991;-42
2023/02/28 10:42:38;;;;;;;;;;;;;;;;;;5093286;28;1671;-43
2023/02/28 10:45:09;;;;;;;;;;;;;;;;;;5093505;28;2289;-42
2023/02/28 10:47:41;;;;;;;;;;;;;;;;;;5093502;28;2101;-41
2023/02/28 10:50:33;;;;;;;;;;;;;;;;;;5093315;28;1885;-41
2023/02/28 10:53:10;;;;;;;;;;;;;;;;;;5088468;28;2219;-42
2023/02/28 10:55:37;;;;;;;;;;;;;;;;;;5093362;28;1979;-42
2023/02/28 10:58:19;;;;;;;;;;;;;;;;;;5093330;28;2020;-42
2023/02/28 11:00:47;;;;;;;;;;;;;;;;;;5093127;28;1641;-42
2023/02/28 11:03:24;;;;;;;;;;;;;;;;;;5093171;28;1832;-42
2023/02/28 11:05:52;;;;;;;;;;;;;;;;;;5080257;28;2025;-42
2023/02/28 11:08:19;;;;;;;;;;;;;;;;;;5072835;28;2000;-42
2023/02/28 11:10:47;;;;;;;;;;;;;;;;;;5072807;28;1815;-49
2023/02/28 11:13:19;;;;;;;;;;;;;;;;;;5072615;28;1991;-42
2023/02/28 11:15:54;;;;;;;;;;;;;;;;;;5072632;28;1983;-46
2023/02/28 11:18:24;;;;;;;;;;;;;;;;;;5072500;28;1697;-42
2023/02/28 11:20:52;;;;;;;;;;;;;;;;;;5072535;28;1815;-42
2023/02/28 11:23:20;;;;;;;;;;;;;;;;;;5072710;28;2087;-42
2023/02/28 11:25:49;;;;;;;;;;;;;;;;;;5072462;28;2087;-42
2023/02/28 11:28:31;;;;;;;;;;;;;;;;;;5072441;28;1948;-44
2023/02/28 11:31:04;;;;;;;;;;;;;;;;;;5072719;28;2046;-50
2023/02/28 11:33:32;;;;;;;;;;;;;;;;;;5091627;28;2010;-42
2023/02/28 11:36:08;;;;;;;;;;;;;;;;;;5092272;28;2387;-42
2023/02/28 11:38:36;;;;;;;;;;;;;;;;;;5092475;28;2106;-42
2023/02/28 11:41:12;;;;;;;;;;;;;;;;;;5092751;28;1852;-42
2023/02/28 11:43:45;;;;;;;;;;;;;;;;;;5092439;28;1788;-42
2023/02/28 11:46:28;;;;;;;;;;;;;;;;;;5092515;28;1933;-43
2023/02/28 11:48:55;;;;;;;;;;;;;;;;;;5092385;28;1852;-44
2023/02/28 11:51:32;;;;;;;;;;;;;;;;;;5091834;28;1685;-43
2023/02/28 11:54:14;;;;;;;;;;;;;;;;;;5092403;28;2236;-46
2023/02/28 11:56:53;;;;;;;;;;;;;;;;;;5073488;28;2174;-43
2023/02/28 11:59:35;;;;;;;;;;;;;;;;;;5071712;28;1545;-42
2023/02/28 12:02:21;;;;;;;;;;;;;;;;;;5071909;28;1875;-42
2023/02/28 12:04:51;;;;;;;;;;;;;;;;;;5075731;28;1984;-42
2023/02/28 12:07:27;;;;;;;;;;;;;;;;;;5091960;28;1712;-41
2023/02/28 12:10:05;;;;;;;;;;;;;;;;;;5091616;28;1947;-43
2023/02/28 12:12:32;;;;;;;;;;;;;;;;;;5088369;28;1814;-44
2023/02/28 12:15:17;;;;;;;;;;;;;;;;;;5071899;28;1978;-42
2023/02/28 12:17:54;;;;;;;;;;;;;;;;;;5071272;28;1724;-42
2023/02/28 12:20:40;;;;;;;;;;;;;;;;;;5071505;28;1953;-42
2023/02/28 12:23:17;;;;;;;;;;;;;;;;;;5071445;28;1838;-41
2023/02/28 12:25:53;;;;;;;;;;;;;;;;;;5071373;28;1375;-44
2023/02/28 12:28:23;;;;;;;;;;;;;;;;;;5071359;28;1736;-43
2023/02/28 12:31:00;;;;;;;;;;;;;;;;;;5071488;28;2123;-42
2023/02/28 12:33:33;;;;;;;;;;;;;;;;;;5071153;28;1692;-41
2023/02/28 12:36:03;;;;;;;;;;;;;;;;;;5070925;28;1993;-42
2023/02/28 12:38:40;;;;;;;;;;;;;;;;;;5070731;28;1987;-41
2023/02/28 12:41:16;;;;;;;;;;;;;;;;;;5071037;28;1364;-43
2023/02/28 12:43:48;;;;;;;;;;;;;;;;;;5071063;28;1748;-43
2023/02/28 12:46:23;;;;;;;;;;;;;;;;;;5071212;28;1934;-42
2023/02/28 12:48:55;;;;;;;;;;;;;;;;;;5071024;28;1822;-40
2023/02/28 12:51:24;;;;;;;;;;;;;;;;;;5071185;28;2180;-42
2023/02/28 12:54:04;;;;;;;;;;;;;;;;;;5070818;28;2149;-41
2023/02/28 12:56:35;;;;;;;;;;;;;;;;;;5070828;28;1910;-43
2023/02/28 12:59:23;;;;;;;;;;;;;;;;;;5071044;28;2158;-42
2023/02/28 13:01:50;;;;;;;;;;;;;;;;;;5063763;28;1978;-42
2023/02/28 13:04:17;;;;;;;;;;;;;;;;;;5070872;28;1966;-42
2023/02/28 13:06:44;;;;;;;;;;;;;;;;;;5091078;28;1990;-42
2023/02/28 13:09:15;;;;;;;;;;;;;;;;;;5084260;28;2049;-42
2023/02/28 13:11:47;;;;;;;;;;;;;;;;;;5070961;28;2145;-42
2023/02/28 13:14:26;;;;;;;;;;;;;;;;;;5070720;28;1817;-43
2023/02/28 13:16:59;;;;;;;;;;;;;;;;;;5070526;28;1908;-42
2023/02/28 13:19:28;;;;;;;;;;;;;;;;;;5070424;28;1991;-42
2023/02/28 13:21:55;;;;;;;;;;;;;;;;;;5070846;28;1791;-42
2023/02/28 13:24:40;;;;;;;;;;;;;;;;;;5070726;28;1854;-42
2023/02/28 13:27:07;;;;;;;;;;;;;;;;;;5070906;28;2068;-42
2023/02/28 13:29:38;;;;;;;;;;;;;;;;;;5070756;28;1856;-42
2023/02/28 13:32:08;;;;;;;;;;;;;;;;;;5080719;28;2045;-42
2023/02/28 13:34:39;;;;;;;;;;;;;;;;;;5089648;28;2104;-43
2023/02/28 13:37:21;;;;;;;;;;;;;;;;;;5089270;28;1977;-42
2023/02/28 13:39:50;;;;;;;;;;;;;;;;;;5090067;28;1823;-45
2023/02/28 13:42:41;;;;;;;;;;;;;;;;;;5090993;28;2032;-42
2023/02/28 13:45:12;;;;;;;;;;;;;;;;;;5091374;28;1941;-42
2023/02/28 13:47:43;;;;;;;;;;;;;;;;;;5091052;28;1647;-43
2023/02/28 13:50:28;;;;;;;;;;;;;;;;;;5078929;28;1805;-46
2023/02/28 13:52:55;;;;;;;;;;;;;;;;;;5071118;28;1964;-43
2023/02/28 13:55:26;;;;;;;;;;;;;;;;;;5073767;28;1914;-42
2023/02/28 13:57:56;;;;;;;;;;;;;;;;;;5074149;28;2061;-43
2023/02/28 14:00:33;;;;;;;;;;;;;;;;;;5074134;28;1815;-42
2023/02/28 14:03:03;;;;;;;;;;;;;;;;;;5074004;28;1722;-43
2023/02/28 14:05:32;;;;;;;;;;;;;;;;;;5076572;28;2076;-43
2023/02/28 14:08:04;;;;;;;;;;;;;;;;;;5074078;28;1655;-43
2023/02/28 14:10:42;;;;;;;;;;;;;;;;;;5073831;28;1731;-45
2023/02/28 14:13:14;;;;;;;;;;;;;;;;;;5073836;28;1686;-48
2023/02/28 14:15:41;;;;;;;;;;;;;;;;;;5073990;28;2238;-44
2023/02/28 14:18:15;;;;;;;;;;;;;;;;;;5074006;28;1615;-48
2023/02/28 14:20:43;;;;;;;;;;;;;;;;;;5073620;28;2080;-44
2023/02/28 14:23:15;;;;;;;;;;;;;;;;;;5073865;28;1915;-45
2023/02/28 14:25:43;;;;;;;;;;;;;;;;;;5073658;28;1941;-43
2023/02/28 14:28:16;;;;;;;;;;;;;;;;;;5073902;28;1865;-44
2023/02/28 14:30:43;;;;;;;;;;;;;;;;;;5073602;28;1977;-43
2023/02/28 14:33:29;;;;;;;;;;;;;;;;;;5092821;28;2149;-44
2023/02/28 14:36:16;;;;;;;;;;;;;;;;;;5093408;28;2009;-45
2023/02/28 14:38:53;;;;;;;;;;;;;;;;;;5093185;28;1959;-43
2023/02/28 14:41:28;;;;;;;;;;;;;;;;;;5093530;28;1875;-42
2023/02/28 14:43:57;;;;;;;;;;;;;;;;;;5093585;28;1959;-43
2023/02/28 14:46:28;;;;;;;;;;;;;;;;;;5093285;28;1870;-46
2023/02/28 14:48:56;;;;;;;;;;;;;;;;;;5093470;28;1808;-45
2023/02/28 14:51:23;;;;;;;;;;;;;;;;;;5093448;28;2184;-42
2023/02/28 14:53:58;;;;;;;;;;;;;;;;;;5092160;28;1949;-44
2023/02/28 14:56:27;;;;;;;;;;;;;;;;;;5093012;28;2005;-44
2023/02/28 14:58:55;;;;;;;;;;;;;;;;;;5093167;28;2033;-43
2023/02/28 15:01:23;;;;;;;;;;;;;;;;;;5089059;28;1907;-44
2023/02/28 15:04:17;;;;;;;;;;;;;;;;;;5072678;28;1807;-43
2023/02/28 15:06:44;;;;;;;;;;;;;;;;;;5084536;28;1880;-43
2023/02/28 15:09:16;;;;;;;;;;;;;;;;;;5092921;28;1941;-44
2023/02/28 15:11:45;;;;;;;;;;;;;;;;;;5093105;28;2093;-42
2023/02/28 15:14:19;;;;;;;;;;;;;;;;;;5093081;28;1948;-44
2023/02/28 15:16:52;;;;;;;;;;;;;;;;;;5092708;28;1981;-43
2023/02/28 15:19:24;;;;;;;;;;;;;;;;;;5092843;28;2018;-42
2023/02/28 15:21:57;;;;;;;;;;;;;;;;;;5092489;28;1902;-42
2023/02/28 15:24:45;;;;;;;;;;;;;;;;;;5092892;28;1527;-44
2023/02/28 15:27:15;;;;;;;;;;;;;;;;;;5092602;28;1704;-43
2023/02/28 15:29:45;;;;;;;;;;;;;;;;;;5092768;28;1803;-43
2023/02/28 15:32:29;;;;;;;;;;;;;;;;;;5079985;28;2095;-43
2023/02/28 15:34:58;;;;;;;;;;;;;;;;;;5072075;28;1795;-44
2023/02/28 15:37:46;;;;;;;;;;;;;;;;;;5071847;28;2190;-42
2023/02/28 15:40:13;;;;;;;;;;;;;;;;;;5070739;28;1905;-43
2023/02/28 15:42:43;;;;;;;;;;;;;;;;;;5071999;28;1577;-43
2023/02/28 15:45:26;;;;;;;;;;;;;;;;;;5072106;28;1651;-43
2023/02/28 15:47:54;;;;;;;;;;;;;;;;;;5071927;28;2029;-44
2023/02/28 15:50:24;;;;;;;;;;;;;;;;;;5072038;28;1424;-43
2023/02/28 15:52:51;;;;;;;;;;;;;;;;;;5071900;28;1904;-43
2023/02/28 15:55:27;;;;;;;;;;;;;;;;;;5072001;28;1618;-43
2023/02/28 15:57:58;;;;;;;;;;;;;;;;;;5071481;28;1993;-44
2023/02/28 16:00:26;;;;;;;;;;;;;;;;;;5071879;28;2138;-42
2023/02/28 16:02:54;;;;;;;;;;;;;;;;;;5071657;28;1619;-43
2023/02/28 16:05:30;;;;;;;;;;;;;;;;;;5080742;28;2333;-43
2023/02/28 16:07:58;;;;;;;;;;;;;;;;;;5091941;28;1844;-44
2023/02/28 16:10:27;;;;;;;;;;;;;;;;;;5091766;28;1831;-42
2023/02/28 16:12:55;;;;;;;;;;;;;;;;;;5072559;28;1601;-44
2023/02/28 16:15:25;;;;;;;;;;;;;;;;;;5071021;28;1950;-43
2023/02/28 16:17:53;;;;;;;;;;;;;;;;;;5071270;28;1922;-44
2023/02/28 16:20:29;;;;;;;;;;;;;;;;;;5071525;28;2126;-42
2023/02/28 16:22:56;;;;;;;;;;;;;;;;;;5071415;28;1994;-43
2023/02/28 16:25:26;;;;;;;;;;;;;;;;;;5071604;28;2043;-43
2023/02/28 16:27:54;;;;;;;;;;;;;;;;;;5071748;28;1925;-43
2023/02/28 16:30:22;;;;;;;;;;;;;;;;;;5071563;28;1964;-41
2023/02/28 16:32:50;;;;;;;;;;;;;;;;;;5070019;28;1783;-43
2023/02/28 16:35:18;;;;;;;;;;;;;;;;;;5071324;28;1748;-43
2023/02/28 16:37:46;;;;;;;;;;;;;;;;;;5071238;28;1984;-42
2023/02/28 16:40:14;;;;;;;;;;;;;;;;;;5070974;28;2046;-42
2023/02/28 16:42:43;;;;;;;;;;;;;;;;;;5069894;28;1891;-42
2023/02/28 16:45:24;;;;;;;;;;;;;;;;;;5070422;28;1341;-44
2023/02/28 16:47:51;;;;;;;;;;;;;;;;;;5070065;28;2067;-42
2023/02/28 16:50:20;;;;;;;;;;;;;;;;;;5071479;28;1820;-44
2023/02/28 16:52:49;;;;;;;;;;;;;;;;;;5070953;28;1758;-42
2023/02/28 16:55:16;;;;;;;;;;;;;;;;;;5071093;28;1940;-42
2023/02/28 16:57:43;;;;;;;;;;;;;;;;;;5070653;28;1900;-42
2023/02/28 17:00:12;;;;;;;;;;;;;;;;;;5071141;28;1706;-42
2023/02/28 17:02:41;;;;;;;;;;;;;;;;;;5071219;28;1690;-44
2023/02/28 17:05:11;;;;;;;;;;;;;;;;;;5077650;28;1952;-44
2023/02/28 17:07:39;;;;;;;;;;;;;;;;;;5091287;28;2129;-43
2023/02/28 17:10:17;;;;;;;;;;;;;;;;;;5090351;28;2261;-42
2023/02/28 17:12:44;;;;;;;;;;;;;;;;;;5090827;28;1294;-41
2023/02/28 17:15:12;;;;;;;;;;;;;;;;;;5091215;28;1546;-42
2023/02/28 17:17:40;;;;;;;;;;;;;;;;;;5090866;28;1905;-41
2023/02/28 17:20:11;;;;;;;;;;;;;;;;;;5091328;28;1767;-42
2023/02/28 17:22:38;;;;;;;;;;;;;;;;;;5090812;28;2118;-41
2023/02/28 17:25:06;;;;;;;;;;;;;;;;;;5091157;28;1814;-42
2023/02/28 17:27:33;;;;;;;;;;;;;;;;;;5092610;28;1859;-41